Terminal Aerodrome Forecast
Issued by NWS

Home | Current Version | Previous Version | Text Only | Print | Product List | Glossary On
Versions: 1 2 3 4 5 6 7 8 9 10 11 12 13
000
FTUS45 KVEF 192300
TAFVGT
TAF
KVGT 192331Z 2000/2024 14008KT P6SM FEW120
     FM200700 33006KT P6SM FEW120
     FM201500 VRB05KT P6SM FEW100
     FM202100 12007KT P6SM SCT100=

USA.gov is the U.S. government's official web portal to all federal, state and local government web resources and services.